createdAt,value
2023-05-13T00:01:09.338Z,58.94
2023-05-13T00:06:11.152Z,59.78
2023-05-13T00:11:12.981Z,59.67
2023-05-13T00:16:14.940Z,59.36
2023-05-13T00:21:16.936Z,59.54
2023-05-13T00:26:18.817Z,59.61
2023-05-13T00:31:20.542Z,60.14
2023-05-13T00:36:22.263Z,61.06
2023-05-13T00:41:24.145Z,61.17
2023-05-13T00:46:33.270Z,61.60
2023-05-13T00:51:36.099Z,61.71
2023-05-13T00:56:38.676Z,62.29
2023-05-13T01:02:17.780Z,61.19
2023-05-13T01:07:28.614Z,63.11
2023-05-13T01:12:38.272Z,63.76
2023-05-13T01:18:01.906Z,63.83
2023-05-13T01:23:04.093Z,63.55
2023-05-13T01:28:08.482Z,62.86
2023-05-13T01:33:10.949Z,63.78
2023-05-13T01:38:15.520Z,64.70
2023-05-13T01:43:18.004Z,64.27
2023-05-13T01:48:19.800Z,64.91
2023-05-13T01:53:21.758Z,65.06
2023-05-13T01:58:23.544Z,64.78
2023-05-13T02:03:25.557Z,65.02
2023-05-13T02:08:27.599Z,65.21
2023-05-13T02:13:30.408Z,66.56
2023-05-13T02:18:32.202Z,68.20
2023-05-13T02:23:34.152Z,68.91
2023-05-13T02:28:36.442Z,68.76
2023-05-13T02:33:38.216Z,67.93
2023-05-13T02:38:40.193Z,67.46
2023-05-13T02:43:42.171Z,67.64
2023-05-13T02:48:43.949Z,67.78
2023-05-13T02:53:45.729Z,69.57
2023-05-13T02:58:47.514Z,69.65
2023-05-13T03:03:49.991Z,69.83
2023-05-13T03:08:51.803Z,69.58
2023-05-13T03:13:53.552Z,69.75
2023-05-13T03:18:55.364Z,70.07
2023-05-13T03:23:57.091Z,70.04
2023-05-13T03:28:58.772Z,70.12
2023-05-13T03:34:00.549Z,69.96
2023-05-13T03:39:02.354Z,70.04
2023-05-13T03:44:04.510Z,70.86
2023-05-13T03:49:06.195Z,71.13
2023-05-13T03:54:07.945Z,70.52
2023-05-13T03:59:09.619Z,70.94
2023-05-13T04:04:11.400Z,71.25
2023-05-13T04:09:13.075Z,71.42
2023-05-13T04:14:14.845Z,71.69
2023-05-13T04:19:16.624Z,71.58
2023-05-13T04:24:18.394Z,71.04
2023-05-13T04:29:20.199Z,71.01
2023-05-13T04:34:21.948Z,70.17
2023-05-13T04:39:23.825Z,69.40
2023-05-13T04:44:25.806Z,68.35
2023-05-13T04:49:27.581Z,67.42
2023-05-13T04:54:30.177Z,66.12
2023-05-13T04:59:32.460Z,65.08
2023-05-13T05:04:34.150Z,63.88
2023-05-13T05:09:36.024Z,62.88
2023-05-13T05:14:38.113Z,62.24
2023-05-13T05:19:40.127Z,60.99
2023-05-13T05:24:42.058Z,60.19
2023-05-13T05:29:44.065Z,59.22
2023-05-13T05:34:45.914Z,59.10
2023-05-13T05:39:47.831Z,58.65
2023-05-13T05:44:49.470Z,58.49
2023-05-13T05:49:51.462Z,58.35
2023-05-13T05:54:53.319Z,57.86
2023-05-13T05:59:55.318Z,56.51
2023-05-13T06:04:57.194Z,56.44
2023-05-13T06:09:58.950Z,55.74
2023-05-13T06:15:01.357Z,53.54
2023-05-13T06:20:04.448Z,52.30
2023-05-13T06:25:06.921Z,51.52
2023-05-13T06:30:09.165Z,51.23
2023-05-13T06:35:11.005Z,50.81
2023-05-13T06:40:13.090Z,50.58
2023-05-13T06:45:15.175Z,49.13
2023-05-13T06:50:17.388Z,46.69
2023-05-13T06:55:19.451Z,45.53
2023-05-13T07:00:21.844Z,45.52
2023-05-13T07:05:23.907Z,45.29
2023-05-13T07:10:25.785Z,43.10
2023-05-13T07:15:28.580Z,41.12
2023-05-13T07:20:31.072Z,41.54
2023-05-13T07:25:33.256Z,40.88
2023-05-13T07:30:35.077Z,39.16
2023-05-13T07:35:37.418Z,38.19
2023-05-13T07:40:39.406Z,36.98
2023-05-13T07:45:41.876Z,36.49
2023-05-13T07:50:45.528Z,36.06
2023-05-13T07:55:47.298Z,35.56
2023-05-13T08:00:49.680Z,35.17
2023-05-13T08:05:51.657Z,34.67
2023-05-13T08:10:53.462Z,34.44
2023-05-13T08:15:55.338Z,33.85
2023-05-13T08:20:57.222Z,33.69
2023-05-13T08:25:59.081Z,32.05
2023-05-13T08:31:03.095Z,32.13
2023-05-13T08:36:05.885Z,32.21
2023-05-13T08:41:08.405Z,31.37
2023-05-13T08:46:12.426Z,30.55
2023-05-13T08:51:14.389Z,29.67
2023-05-13T08:56:16.169Z,29.95
2023-05-13T09:01:18.196Z,29.58
2023-05-13T09:06:20.535Z,29.88
2023-05-13T09:11:22.824Z,30.34
2023-05-13T09:16:26.483Z,29.45
2023-05-13T09:21:33.539Z,29.34
2023-05-13T09:26:36.137Z,28.30
2023-05-13T09:31:37.976Z,28.77
2023-05-13T09:36:41.330Z,27.19
2023-05-13T09:41:43.194Z,28.17
2023-05-13T09:46:45.032Z,28.02
2023-05-13T09:51:46.963Z,27.39
2023-05-13T09:56:48.835Z,28.25
2023-05-13T10:01:51.084Z,27.01
2023-05-13T10:06:54.232Z,26.88
2023-05-13T10:11:58.505Z,27.29
2023-05-13T10:17:01.452Z,27.44
2023-05-13T10:22:04.674Z,28.38
2023-05-13T10:27:07.980Z,28.71
2023-05-13T10:32:12.139Z,27.93
2023-05-13T10:38:01.703Z,27.18
2023-05-13T10:43:22.130Z,25.63
2023-05-13T10:48:24.271Z,24.64
2023-05-13T10:53:31.955Z,25.36
2023-05-13T10:58:38.823Z,25.00
2023-05-13T11:03:42.013Z,25.61
2023-05-13T11:08:47.359Z,26.41
2023-05-13T11:13:59.397Z,24.64
2023-05-13T11:19:18.987Z,24.26
2023-05-13T11:24:22.411Z,24.22
2023-05-13T11:29:35.864Z,24.68
2023-05-13T11:34:49.197Z,24.50
2023-05-13T11:39:50.876Z,24.64
2023-05-13T11:44:54.195Z,24.49
2023-05-13T11:49:56.873Z,23.94
2023-05-13T11:54:58.864Z,24.37
2023-05-13T12:00:06.174Z,24.91
2023-05-13T12:05:10.750Z,23.78
2023-05-13T12:10:13.043Z,22.83
2023-05-13T12:20:24.582Z,23.90
2023-05-13T12:25:46.461Z,22.77
2023-05-13T12:30:51.533Z,22.56
2023-05-13T12:36:17.304Z,22.59
2023-05-13T12:41:19.295Z,23.55
2023-05-13T12:46:21.285Z,24.07
2023-05-13T12:51:24.231Z,24.26
2023-05-13T12:56:26.203Z,23.23
2023-05-13T13:01:28.274Z,22.87
2023-05-13T13:06:32.019Z,21.32
2023-05-13T13:11:33.791Z,21.20
2023-05-13T13:16:35.772Z,21.17
2023-05-13T13:21:37.853Z,20.34
2023-05-13T13:26:40.354Z,20.46
2023-05-13T13:31:42.570Z,22.09
2023-05-13T13:36:44.516Z,22.75
2023-05-13T13:41:46.906Z,22.85
2023-05-13T13:46:49.303Z,22.92
2023-05-13T13:51:52.819Z,21.36
2023-05-13T13:56:54.889Z,21.70
2023-05-13T14:01:56.985Z,26.56
2023-05-13T14:06:59.368Z,30.56
2023-05-13T14:12:01.268Z,30.25
2023-05-13T14:17:03.420Z,31.13
2023-05-13T14:22:05.402Z,30.93
2023-05-13T14:27:07.280Z,28.57
2023-05-13T14:32:08.962Z,27.80
2023-05-13T14:37:11.133Z,25.98
2023-05-13T14:42:13.132Z,24.03
2023-05-13T14:47:15.521Z,23.20
2023-05-13T14:52:17.273Z,23.00
2023-05-13T14:57:19.571Z,22.83
2023-05-13T15:02:21.406Z,23.11
2023-05-13T15:07:23.422Z,25.11
2023-05-13T15:12:25.929Z,25.22
2023-05-13T15:17:29.577Z,24.86
2023-05-13T15:22:33.337Z,26.35
2023-05-13T15:27:36.211Z,27.44
2023-05-13T15:32:38.391Z,27.17
2023-05-13T15:37:42.167Z,27.00
2023-05-13T15:42:47.838Z,27.35
2023-05-13T15:47:50.171Z,27.49
2023-05-13T15:52:54.247Z,27.92
2023-05-13T15:57:56.019Z,27.32
2023-05-13T16:02:57.829Z,28.11
2023-05-13T16:07:59.878Z,28.27
2023-05-13T16:13:02.169Z,28.82
2023-05-13T16:18:04.168Z,29.67
2023-05-13T16:23:06.034Z,30.77
2023-05-13T16:28:08.107Z,31.00
2023-05-13T16:33:11.076Z,30.81
2023-05-13T16:38:13.296Z,31.51
2023-05-13T16:43:15.378Z,31.64
2023-05-13T16:48:17.372Z,31.86
2023-05-13T16:53:21.897Z,32.16
2023-05-13T16:58:23.774Z,32.10
2023-05-13T17:03:25.617Z,33.18
2023-05-13T17:08:27.630Z,33.08
2023-05-13T17:13:29.922Z,34.18
2023-05-13T17:18:31.934Z,34.24
2023-05-13T17:23:33.983Z,34.86
2023-05-13T17:28:37.701Z,34.94
2023-05-13T17:33:39.812Z,35.25
2023-05-13T17:38:41.912Z,38.17
2023-05-13T17:43:43.756Z,39.74
2023-05-13T17:48:45.673Z,39.63
2023-05-13T17:53:48.016Z,37.93
2023-05-13T17:58:49.786Z,39.44
2023-05-13T18:03:51.670Z,40.83
2023-05-13T18:08:53.857Z,41.39
2023-05-13T18:13:55.834Z,41.47
2023-05-13T18:18:57.858Z,41.11
2023-05-13T18:24:00.182Z,42.00
2023-05-13T18:29:02.521Z,42.58
2023-05-13T18:34:04.369Z,42.72
2023-05-13T18:39:07.779Z,43.03
2023-05-13T18:44:09.655Z,44.04
2023-05-13T18:49:11.760Z,44.72
2023-05-13T18:54:13.621Z,44.86
2023-05-13T18:59:15.902Z,44.13
2023-05-13T19:04:18.032Z,44.92
2023-05-13T19:09:21.320Z,45.28
2023-05-13T19:14:23.214Z,46.06
2023-05-13T19:19:25.473Z,46.84
2023-05-13T19:24:27.439Z,46.83
2023-05-13T19:29:29.314Z,46.92
2023-05-13T19:34:31.605Z,47.84
2023-05-13T19:39:33.392Z,48.25
2023-05-13T19:44:36.176Z,48.20
2023-05-13T19:49:38.187Z,48.90
2023-05-13T19:54:40.249Z,50.24
2023-05-13T19:59:42.039Z,51.43
2023-05-13T20:04:43.997Z,51.95
2023-05-13T20:09:46.074Z,52.76
2023-05-13T20:15:00.038Z,53.40
2023-05-13T20:20:02.135Z,53.60
2023-05-13T20:25:05.248Z,53.94
2023-05-13T20:30:08.488Z,54.69
2023-05-13T20:35:10.316Z,55.06
2023-05-13T20:40:12.611Z,55.00
2023-05-13T20:45:14.591Z,54.15
2023-05-13T20:50:16.476Z,55.88
2023-05-13T20:55:20.084Z,56.24
2023-05-13T21:00:22.461Z,55.81
2023-05-13T21:05:24.830Z,56.17
2023-05-13T21:10:27.046Z,56.71
2023-05-13T21:15:29.549Z,57.54
2023-05-13T21:20:32.341Z,57.49
2023-05-13T21:25:34.320Z,58.24
2023-05-13T21:30:36.295Z,59.81
2023-05-13T21:35:38.069Z,60.45
2023-05-13T21:40:40.152Z,61.10
2023-05-13T21:45:42.239Z,60.88
2023-05-13T21:50:44.120Z,59.90
2023-05-13T21:55:45.894Z,59.74
2023-05-13T22:00:47.908Z,59.86
2023-05-13T22:05:49.756Z,61.18
2023-05-13T22:10:51.758Z,61.60
2023-05-13T22:15:53.958Z,62.67
2023-05-13T22:20:55.988Z,62.57
2023-05-13T22:25:57.783Z,62.44
2023-05-13T22:31:00.263Z,62.43
2023-05-13T22:36:02.163Z,63.22
2023-05-13T22:41:04.317Z,61.93
2023-05-13T22:46:06.122Z,62.34
2023-05-13T22:51:08.395Z,62.78
2023-05-13T22:56:10.683Z,62.65
2023-05-13T23:01:13.048Z,62.06
2023-05-13T23:06:15.044Z,61.88
2023-05-13T23:11:17.117Z,62.36
2023-05-13T23:16:19.498Z,62.81
2023-05-13T23:21:21.490Z,64.00
2023-05-13T23:26:24.399Z,66.07
2023-05-13T23:31:26.967Z,66.37
2023-05-13T23:36:28.960Z,65.14
2023-05-13T23:41:30.658Z,65.11
2023-05-13T23:46:32.430Z,65.50
2023-05-13T23:51:34.182Z,66.04
2023-05-13T23:56:35.987Z,64.93
